sensor_id;sensor_type;location;lat;lon;timestamp;P1;P2;P0
37709;PMS5003;60223;34.854;-92.408;2024-01-15T00:01:51;37;35;
37709;PMS5003;60223;34.854;-92.408;2024-01-15T00:04:15;36;33;
37709;PMS5003;60223;34.854;-92.408;2024-01-15T00:06:42;34;33;
37709;PMS5003;60223;34.854;-92.408;2024-01-15T00:09:07;29;28;
37709;PMS5003;60223;34.854;-92.408;2024-01-15T00:11:33;30;29;
37709;PMS5003;60223;34.854;-92.408;2024-01-15T00:13:59;27;25;
37709;PMS5003;60223;34.854;-92.408;2024-01-15T00:16:24;23;23;
37709;PMS5003;60223;34.854;-92.408;2024-01-15T00:18:49;28;28;
37709;PMS5003;60223;34.854;-92.408;2024-01-15T00:21:13;27;26;
37709;PMS5003;60223;34.854;-92.408;2024-01-15T00:23:42;28;23;
37709;PMS5003;60223;34.854;-92.408;2024-01-15T00:26:05;23;22;
37709;PMS5003;60223;34.854;-92.408;2024-01-15T00:28:31;25;24;
37709;PMS5003;60223;34.854;-92.408;2024-01-15T00:30:57;32;29;
37709;PMS5003;60223;34.854;-92.408;2024-01-15T00:33:22;26;22;
37709;PMS5003;60223;34.854;-92.408;2024-01-15T00:35:48;26;26;
37709;PMS5003;60223;34.854;-92.408;2024-01-15T00:38:13;21;19;
37709;PMS5003;60223;34.854;-92.408;2024-01-15T00:40:38;22;19;
37709;PMS5003;60223;34.854;-92.408;2024-01-15T00:43:03;30;27;
37709;PMS5003;60223;34.854;-92.408;2024-01-15T00:45:29;19;18;
37709;PMS5003;60223;34.854;-92.408;2024-01-15T00:47:55;20;19;
37709;PMS5003;60223;34.854;-92.408;2024-01-15T00:50:20;22;21;
37709;PMS5003;60223;34.854;-92.408;2024-01-15T00:52:43;23;23;
37709;PMS5003;60223;34.854;-92.408;2024-01-15T00:55:11;22;20;
37709;PMS5003;60223;34.854;-92.408;2024-01-15T00:57:36;27;26;
37709;PMS5003;60223;34.854;-92.408;2024-01-15T01:00:02;27;24;
37709;PMS5003;60223;34.854;-92.408;2024-01-15T01:02:26;19;17;
37709;PMS5003;60223;34.854;-92.408;2024-01-15T01:04:53;22;22;
37709;PMS5003;60223;34.854;-92.408;2024-01-15T01:07:19;20;19;
37709;PMS5003;60223;34.854;-92.408;2024-01-15T01:09:44;24;23;
37709;PMS5003;60223;34.854;-92.408;2024-01-15T01:12:10;23;21;
37709;PMS5003;60223;34.854;-92.408;2024-01-15T01:14:35;18;14;
37709;PMS5003;60223;34.854;-92.408;2024-01-15T01:17:01;18;16;
37709;PMS5003;60223;34.854;-92.408;2024-01-15T01:19:25;22;20;
37709;PMS5003;60223;34.854;-92.408;2024-01-15T01:21:53;17;15;
37709;PMS5003;60223;34.854;-92.408;2024-01-15T01:24:26;20;17;
37709;PMS5003;60223;34.854;-92.408;2024-01-15T01:26:43;18;16;
37709;PMS5003;60223;34.854;-92.408;2024-01-15T01:29:08;20;17;
37709;PMS5003;60223;34.854;-92.408;2024-01-15T01:31:35;20;18;
37709;PMS5003;60223;34.854;-92.408;2024-01-15T01:34:00;18;15;
37709;PMS5003;60223;34.854;-92.408;2024-01-15T01:36:25;18;14;
37709;PMS5003;60223;34.854;-92.408;2024-01-15T01:38:50;17;15;
37709;PMS5003;60223;34.854;-92.408;2024-01-15T01:41:17;16;14;
37709;PMS5003;60223;34.854;-92.408;2024-01-15T01:43:42;14;14;
37709;PMS5003;60223;34.854;-92.408;2024-01-15T01:46:07;17;13;
37709;PMS5003;60223;34.854;-92.408;2024-01-15T01:48:33;18;16;
37709;PMS5003;60223;34.854;-92.408;2024-01-15T01:50:59;17;17;
37709;PMS5003;60223;34.854;-92.408;2024-01-15T01:53:24;13;13;
37709;PMS5003;60223;34.854;-92.408;2024-01-15T01:55:50;15;14;
37709;PMS5003;60223;34.854;-92.408;2024-01-15T01:58:15;12;12;
37709;PMS5003;60223;34.854;-92.408;2024-01-15T02:00:40;14;14;
37709;PMS5003;60223;34.854;-92.408;2024-01-15T02:03:06;13;13;
37709;PMS5003;60223;34.854;-92.408;2024-01-15T02:05:31;11;11;
37709;PMS5003;60223;34.854;-92.408;2024-01-15T02:07:57;14;12;
37709;PMS5003;60223;34.854;-92.408;2024-01-15T02:10:22;12;10;
37709;PMS5003;60223;34.854;-92.408;2024-01-15T02:12:48;11;11;
37709;PMS5003;60223;34.854;-92.408;2024-01-15T02:15:13;13;13;
37709;PMS5003;60223;34.854;-92.408;2024-01-15T02:20:05;12;11;
37709;PMS5003;60223;34.854;-92.408;2024-01-15T02:22:31;10;10;
37709;PMS5003;60223;34.854;-92.408;2024-01-15T02:24:56;11;9;
37709;PMS5003;60223;34.854;-92.408;2024-01-15T02:27:22;10;9;
37709;PMS5003;60223;34.854;-92.408;2024-01-15T02:29:47;9;9;
37709;PMS5003;60223;34.854;-92.408;2024-01-15T02:32:12;11;11;
37709;PMS5003;60223;34.854;-92.408;2024-01-15T02:34:38;12;9;
37709;PMS5003;60223;34.854;-92.408;2024-01-15T02:37:04;9;9;
37709;PMS5003;60223;34.854;-92.408;2024-01-15T02:39:29;10;10;
37709;PMS5003;60223;34.854;-92.408;2024-01-15T02:49:12;11;11;
37709;PMS5003;60223;34.854;-92.408;2024-01-15T02:51:37;9;8;
37709;PMS5003;60223;34.854;-92.408;2024-01-15T02:54:03;8;8;
37709;PMS5003;60223;34.854;-92.408;2024-01-15T02:56:29;9;8;
37709;PMS5003;60223;34.854;-92.408;2024-01-15T02:58:54;9;9;
37709;PMS5003;60223;34.854;-92.408;2024-01-15T03:01:20;9;9;
37709;PMS5003;60223;34.854;-92.408;2024-01-15T03:03:45;8;6;
37709;PMS5003;60223;34.854;-92.408;2024-01-15T03:06:11;9;6;
37709;PMS5003;60223;34.854;-92.408;2024-01-15T03:08:36;8;8;
37709;PMS5003;60223;34.854;-92.408;2024-01-15T03:11:03;5;5;
37709;PMS5003;60223;34.854;-92.408;2024-01-15T03:13:28;11;11;
37709;PMS5003;60223;34.854;-92.408;2024-01-15T03:15:54;12;9;
37709;PMS5003;60223;34.854;-92.408;2024-01-15T03:18:19;9;8;
37709;PMS5003;60223;34.854;-92.408;2024-01-15T03:20:45;6;6;
37709;PMS5003;60223;34.854;-92.408;2024-01-15T03:23:11;7;6;
37709;PMS5003;60223;34.854;-92.408;2024-01-15T03:25:36;5;5;
37709;PMS5003;60223;34.854;-92.408;2024-01-15T03:28:01;5;5;
37709;PMS5003;60223;34.854;-92.408;2024-01-15T03:30:27;9;9;
37709;PMS5003;60223;34.854;-92.408;2024-01-15T03:32:51;6;6;
37709;PMS5003;60223;34.854;-92.408;2024-01-15T03:35:19;6;6;
37709;PMS5003;60223;34.854;-92.408;2024-01-15T03:37:45;6;6;
37709;PMS5003;60223;34.854;-92.408;2024-01-15T03:40:11;4;4;
37709;PMS5003;60223;34.854;-92.408;2024-01-15T03:42:36;6;6;
37709;PMS5003;60223;34.854;-92.408;2024-01-15T03:45:02;5;5;
37709;PMS5003;60223;34.854;-92.408;2024-01-15T03:47:27;5;5;
37709;PMS5003;60223;34.854;-92.408;2024-01-15T03:49:53;7;7;
37709;PMS5003;60223;34.854;-92.408;2024-01-15T03:52:19;6;6;
37709;PMS5003;60223;34.854;-92.408;2024-01-15T03:54:44;5;4;
37709;PMS5003;60223;34.854;-92.408;2024-01-15T03:57:07;6;5;
37709;PMS5003;60223;34.854;-92.408;2024-01-15T03:59:36;7;7;
37709;PMS5003;60223;34.854;-92.408;2024-01-15T04:02:01;7;5;
37709;PMS5003;60223;34.854;-92.408;2024-01-15T04:04:26;7;6;
37709;PMS5003;60223;34.854;-92.408;2024-01-15T04:06:52;6;6;
37709;PMS5003;60223;34.854;-92.408;2024-01-15T04:09:18;7;6;
37709;PMS5003;60223;34.854;-92.408;2024-01-15T04:11:43;5;5;
37709;PMS5003;60223;34.854;-92.408;2024-01-15T04:14:08;5;5;
37709;PMS5003;60223;34.854;-92.408;2024-01-15T04:16:34;4;4;
37709;PMS5003;60223;34.854;-92.408;2024-01-15T04:19:00;5;4;
37709;PMS5003;60223;34.854;-92.408;2024-01-15T04:21:26;4;4;
37709;PMS5003;60223;34.854;-92.408;2024-01-15T04:23:52;5;5;
37709;PMS5003;60223;34.854;-92.408;2024-01-15T04:26:18;6;6;
37709;PMS5003;60223;34.854;-92.408;2024-01-15T04:28:43;6;6;
37709;PMS5003;60223;34.854;-92.408;2024-01-15T04:31:09;3;3;
37709;PMS5003;60223;34.854;-92.408;2024-01-15T04:33:34;5;5;
37709;PMS5003;60223;34.854;-92.408;2024-01-15T04:36:01;4;4;
37709;PMS5003;60223;34.854;-92.408;2024-01-15T04:38:26;4;4;
37709;PMS5003;60223;34.854;-92.408;2024-01-15T04:40:51;4;4;
37709;PMS5003;60223;34.854;-92.408;2024-01-15T04:43:17;4;4;
37709;PMS5003;60223;34.854;-92.408;2024-01-15T04:45:40;3;3;
37709;PMS5003;60223;34.854;-92.408;2024-01-15T04:50:34;3;3;
37709;PMS5003;60223;34.854;-92.408;2024-01-15T04:52:58;5;5;
37709;PMS5003;60223;34.854;-92.408;2024-01-15T04:55:25;8;4;
37709;PMS5003;60223;34.854;-92.408;2024-01-15T04:57:51;5;5;
37709;PMS5003;60223;34.854;-92.408;2024-01-15T05:00:17;3;3;
37709;PMS5003;60223;34.854;-92.408;2024-01-15T05:02:42;4;4;
37709;PMS5003;60223;34.854;-92.408;2024-01-15T05:05:06;4;4;
37709;PMS5003;60223;34.854;-92.408;2024-01-15T05:07:33;5;5;
37709;PMS5003;60223;34.854;-92.408;2024-01-15T05:09:59;4;4;
37709;PMS5003;60223;34.854;-92.408;2024-01-15T05:12:25;3;2;
37709;PMS5003;60223;34.854;-92.408;2024-01-15T05:14:50;4;4;
37709;PMS5003;60223;34.854;-92.408;2024-01-15T05:17:14;4;4;
37709;PMS5003;60223;34.854;-92.408;2024-01-15T05:19:42;3;3;
37709;PMS5003;60223;34.854;-92.408;2024-01-15T05:22:07;3;3;
37709;PMS5003;60223;34.854;-92.408;2024-01-15T05:24:33;6;5;
37709;PMS5003;60223;34.854;-92.408;2024-01-15T05:26:59;3;3;
37709;PMS5003;60223;34.854;-92.408;2024-01-15T05:29:23;3;3;
37709;PMS5003;60223;34.854;-92.408;2024-01-15T05:31:50;4;4;
37709;PMS5003;60223;34.854;-92.408;2024-01-15T05:34:16;5;5;
37709;PMS5003;60223;34.854;-92.408;2024-01-15T05:36:41;5;5;
37709;PMS5003;60223;34.854;-92.408;2024-01-15T05:39:05;2;2;
37709;PMS5003;60223;34.854;-92.408;2024-01-15T05:41:33;4;4;
37709;PMS5003;60223;34.854;-92.408;2024-01-15T05:43:59;2;2;
37709;PMS5003;60223;34.854;-92.408;2024-01-15T05:46:24;5;4;
37709;PMS5003;60223;34.854;-92.408;2024-01-15T05:48:50;2;2;
37709;PMS5003;60223;34.854;-92.408;2024-01-15T05:51:15;3;3;
37709;PMS5003;60223;34.854;-92.408;2024-01-15T05:53:39;5;4;
37709;PMS5003;60223;34.854;-92.408;2024-01-15T05:56:07;3;3;
37709;PMS5003;60223;34.854;-92.408;2024-01-15T05:58:32;5;5;
37709;PMS5003;60223;34.854;-92.408;2024-01-15T06:00:58;4;3;
37709;PMS5003;60223;34.854;-92.408;2024-01-15T06:03:23;3;3;
37709;PMS5003;60223;34.854;-92.408;2024-01-15T06:05:49;4;4;
37709;PMS5003;60223;34.854;-92.408;2024-01-15T06:08:15;4;4;
37709;PMS5003;60223;34.854;-92.408;2024-01-15T06:10:39;4;4;
37709;PMS5003;60223;34.854;-92.408;2024-01-15T06:13:06;3;2;
37709;PMS5003;60223;34.854;-92.408;2024-01-15T06:15:32;2;2;
37709;PMS5003;60223;34.854;-92.408;2024-01-15T06:17:57;3;3;
37709;PMS5003;60223;34.854;-92.408;2024-01-15T06:20:21;2;2;
37709;PMS5003;60223;34.854;-92.408;2024-01-15T06:22:49;2;2;
37709;PMS5003;60223;34.854;-92.408;2024-01-15T06:25:14;1;1;
37709;PMS5003;60223;34.854;-92.408;2024-01-15T06:27:40;1;1;
37709;PMS5003;60223;34.854;-92.408;2024-01-15T06:30:04;3;3;
37709;PMS5003;60223;34.854;-92.408;2024-01-15T06:32:31;3;3;
37709;PMS5003;60223;34.854;-92.408;2024-01-15T06:34:56;2;2;
37709;PMS5003;60223;34.854;-92.408;2024-01-15T06:37:22;2;2;
37709;PMS5003;60223;34.854;-92.408;2024-01-15T06:39:48;2;2;
37709;PMS5003;60223;34.854;-92.408;2024-01-15T06:42:12;3;3;
37709;PMS5003;60223;34.854;-92.408;2024-01-15T06:44:39;2;2;
37709;PMS5003;60223;34.854;-92.408;2024-01-15T06:47:05;5;4;
37709;PMS5003;60223;34.854;-92.408;2024-01-15T06:49:30;4;4;
37709;PMS5003;60223;34.854;-92.408;2024-01-15T06:51:55;3;3;
37709;PMS5003;60223;34.854;-92.408;2024-01-15T06:54:22;3;3;
37709;PMS5003;60223;34.854;-92.408;2024-01-15T06:56:48;2;2;
37709;PMS5003;60223;34.854;-92.408;2024-01-15T06:59:13;3;3;
37709;PMS5003;60223;34.854;-92.408;2024-01-15T07:01:37;2;2;
37709;PMS5003;60223;34.854;-92.408;2024-01-15T07:04:04;2;2;
37709;PMS5003;60223;34.854;-92.408;2024-01-15T07:06:30;3;3;
37709;PMS5003;60223;34.854;-92.408;2024-01-15T07:08:56;2;2;
37709;PMS5003;60223;34.854;-92.408;2024-01-15T07:11:20;3;3;
37709;PMS5003;60223;34.854;-92.408;2024-01-15T07:13:47;2;2;
37709;PMS5003;60223;34.854;-92.408;2024-01-15T07:16:13;2;2;
37709;PMS5003;60223;34.854;-92.408;2024-01-15T07:18:38;3;1;
37709;PMS5003;60223;34.854;-92.408;2024-01-15T07:21:03;1;1;
37709;PMS5003;60223;34.854;-92.408;2024-01-15T07:23:30;3;3;
37709;PMS5003;60223;34.854;-92.408;2024-01-15T07:25:55;1;1;
37709;PMS5003;60223;34.854;-92.408;2024-01-15T07:28:21;3;3;
37709;PMS5003;60223;34.854;-92.408;2024-01-15T07:30:46;2;2;
37709;PMS5003;60223;34.854;-92.408;2024-01-15T07:33:11;2;2;
37709;PMS5003;60223;34.854;-92.408;2024-01-15T07:35:35;1;1;
37709;PMS5003;60223;34.854;-92.408;2024-01-15T07:38:04;2;1;
37709;PMS5003;60223;34.854;-92.408;2024-01-15T07:40:29;3;3;
37709;PMS5003;60223;34.854;-92.408;2024-01-15T07:42:55;2;2;
37709;PMS5003;60223;34.854;-92.408;2024-01-15T07:45:20;2;2;
37709;PMS5003;60223;34.854;-92.408;2024-01-15T07:47:46;1;1;
37709;PMS5003;60223;34.854;-92.408;2024-01-15T07:50:12;1;1;
37709;PMS5003;60223;34.854;-92.408;2024-01-15T07:52:38;2;2;
37709;PMS5003;60223;34.854;-92.408;2024-01-15T07:55:03;2;2;
37709;PMS5003;60223;34.854;-92.408;2024-01-15T07:57:29;3;3;
37709;PMS5003;60223;34.854;-92.408;2024-01-15T07:59:54;1;1;
37709;PMS5003;60223;34.854;-92.408;2024-01-15T08:02:20;3;3;
37709;PMS5003;60223;34.854;-92.408;2024-01-15T08:04:44;1;1;
37709;PMS5003;60223;34.854;-92.408;2024-01-15T08:07:11;3;3;
37709;PMS5003;60223;34.854;-92.408;2024-01-15T08:09:37;2;2;
37709;PMS5003;60223;34.854;-92.408;2024-01-15T08:12:03;1;1;
37709;PMS5003;60223;34.854;-92.408;2024-01-15T08:14:27;3;3;
37709;PMS5003;60223;34.854;-92.408;2024-01-15T08:16:54;2;2;
37709;PMS5003;60223;34.854;-92.408;2024-01-15T08:19:20;2;2;
37709;PMS5003;60223;34.854;-92.408;2024-01-15T08:21:45;2;2;
37709;PMS5003;60223;34.854;-92.408;2024-01-15T08:24:11;1;1;
37709;PMS5003;60223;34.854;-92.408;2024-01-15T08:26:36;2;2;
37709;PMS5003;60223;34.854;-92.408;2024-01-15T08:29:02;2;2;
37709;PMS5003;60223;34.854;-92.408;2024-01-15T08:31:28;1;1;
37709;PMS5003;60223;34.854;-92.408;2024-01-15T08:33:53;3;3;
37709;PMS5003;60223;34.854;-92.408;2024-01-15T08:36:19;3;2;
37709;PMS5003;60223;34.854;-92.408;2024-01-15T08:38:44;2;2;
37709;PMS5003;60223;34.854;-92.408;2024-01-15T08:41:11;1;1;
37709;PMS5003;60223;34.854;-92.408;2024-01-15T08:43:36;2;2;
37709;PMS5003;60223;34.854;-92.408;2024-01-15T08:46:02;2;2;
37709;PMS5003;60223;34.854;-92.408;2024-01-15T08:48:27;2;2;
37709;PMS5003;60223;34.854;-92.408;2024-01-15T08:50:53;2;2;
37709;PMS5003;60223;34.854;-92.408;2024-01-15T08:53:19;1;1;
37709;PMS5003;60223;34.854;-92.408;2024-01-15T08:55:44;1;1;
37709;PMS5003;60223;34.854;-92.408;2024-01-15T08:58:09;2;2;
37709;PMS5003;60223;34.854;-92.408;2024-01-15T09:00:36;2;2;
37709;PMS5003;60223;34.854;-92.408;2024-01-15T09:03:01;2;2;
37709;PMS5003;60223;34.854;-92.408;2024-01-15T09:05:26;2;2;
37709;PMS5003;60223;34.854;-92.408;2024-01-15T09:07:53;2;2;
37709;PMS5003;60223;34.854;-92.408;2024-01-15T09:10:18;2;2;
37709;PMS5003;60223;34.854;-92.408;2024-01-15T09:12:44;1;1;
37709;PMS5003;60223;34.854;-92.408;2024-01-15T09:15:08;2;2;
37709;PMS5003;60223;34.854;-92.408;2024-01-15T09:17:35;1;1;
37709;PMS5003;60223;34.854;-92.408;2024-01-15T09:20:01;3;3;
37709;PMS5003;60223;34.854;-92.408;2024-01-15T09:22:27;3;2;
37709;PMS5003;60223;34.854;-92.408;2024-01-15T09:24:52;2;2;
37709;PMS5003;60223;34.854;-92.408;2024-01-15T09:27:18;3;3;
37709;PMS5003;60223;34.854;-92.408;2024-01-15T09:29:43;1;1;
37709;PMS5003;60223;34.854;-92.408;2024-01-15T09:32:09;2;2;
37709;PMS5003;60223;34.854;-92.408;2024-01-15T09:34:33;2;2;
37709;PMS5003;60223;34.854;-92.408;2024-01-15T09:37:00;3;2;
37709;PMS5003;60223;34.854;-92.408;2024-01-15T09:39:26;1;1;
37709;PMS5003;60223;34.854;-92.408;2024-01-15T09:41:52;2;2;
37709;PMS5003;60223;34.854;-92.408;2024-01-15T09:44:16;1;1;
37709;PMS5003;60223;34.854;-92.408;2024-01-15T09:46:43;2;2;
37709;PMS5003;60223;34.854;-92.408;2024-01-15T09:49:09;2;2;
37709;PMS5003;60223;34.854;-92.408;2024-01-15T09:51:34;2;2;
37709;PMS5003;60223;34.854;-92.408;2024-01-15T09:54:00;2;2;
37709;PMS5003;60223;34.854;-92.408;2024-01-15T09:56:25;0;0;
37709;PMS5003;60223;34.854;-92.408;2024-01-15T09:58:51;3;3;
37709;PMS5003;60223;34.854;-92.408;2024-01-15T10:01:17;3;3;
37709;PMS5003;60223;34.854;-92.408;2024-01-15T10:03:42;1;1;
37709;PMS5003;60223;34.854;-92.408;2024-01-15T10:06:08;1;1;
37709;PMS5003;60223;34.854;-92.408;2024-01-15T10:08:34;1;1;
37709;PMS5003;60223;34.854;-92.408;2024-01-15T10:10:59;2;2;
37709;PMS5003;60223;34.854;-92.408;2024-01-15T10:13:25;1;1;
37709;PMS5003;60223;34.854;-92.408;2024-01-15T10:15:49;1;1;
37709;PMS5003;60223;34.854;-92.408;2024-01-15T10:18:17;2;2;
37709;PMS5003;60223;34.854;-92.408;2024-01-15T10:20:42;3;2;
37709;PMS5003;60223;34.854;-92.408;2024-01-15T10:23:08;0;0;
37709;PMS5003;60223;34.854;-92.408;2024-01-15T10:25:34;2;2;
37709;PMS5003;60223;34.854;-92.408;2024-01-15T10:32:51;3;2;
37709;PMS5003;60223;34.854;-92.408;2024-01-15T10:35:14;2;2;
37709;PMS5003;60223;34.854;-92.408;2024-01-15T10:37:42;2;2;
37709;PMS5003;60223;34.854;-92.408;2024-01-15T10:40:08;2;2;
37709;PMS5003;60223;34.854;-92.408;2024-01-15T10:42:33;1;1;
37709;PMS5003;60223;34.854;-92.408;2024-01-15T10:44:57;2;2;
37709;PMS5003;60223;34.854;-92.408;2024-01-15T10:47:24;2;2;
37709;PMS5003;60223;34.854;-92.408;2024-01-15T10:49:50;2;2;
37709;PMS5003;60223;34.854;-92.408;2024-01-15T10:52:13;2;2;
37709;PMS5003;60223;34.854;-92.408;2024-01-15T10:54:39;1;1;
37709;PMS5003;60223;34.854;-92.408;2024-01-15T10:57:07;2;2;
37709;PMS5003;60223;34.854;-92.408;2024-01-15T10:59:32;2;2;
37709;PMS5003;60223;34.854;-92.408;2024-01-15T11:01:58;2;2;
37709;PMS5003;60223;34.854;-92.408;2024-01-15T11:04:23;1;1;
37709;PMS5003;60223;34.854;-92.408;2024-01-15T11:06:50;2;2;
37709;PMS5003;60223;34.854;-92.408;2024-01-15T11:09:15;1;1;
37709;PMS5003;60223;34.854;-92.408;2024-01-15T11:11:42;2;2;
37709;PMS5003;60223;34.854;-92.408;2024-01-15T11:14:06;1;1;
37709;PMS5003;60223;34.854;-92.408;2024-01-15T11:19:02;2;2;
37709;PMS5003;60223;34.854;-92.408;2024-01-15T11:21:23;2;2;
37709;PMS5003;60223;34.854;-92.408;2024-01-15T11:23:48;1;1;
37709;PMS5003;60223;34.854;-92.408;2024-01-15T11:28:48;2;2;
37709;PMS5003;60223;34.854;-92.408;2024-01-15T11:31:06;2;2;
37709;PMS5003;60223;34.854;-92.408;2024-01-15T11:33:33;2;2;
37709;PMS5003;60223;34.854;-92.408;2024-01-15T11:35:57;2;2;
37709;PMS5003;60223;34.854;-92.408;2024-01-15T11:38:26;2;2;
37709;PMS5003;60223;34.854;-92.408;2024-01-15T11:40:49;1;1;
37709;PMS5003;60223;34.854;-92.408;2024-01-15T11:43:14;5;4;
37709;PMS5003;60223;34.854;-92.408;2024-01-15T11:45:38;1;1;
37709;PMS5003;60223;34.854;-92.408;2024-01-15T11:48:09;1;1;
37709;PMS5003;60223;34.854;-92.408;2024-01-15T11:50:31;1;1;
37709;PMS5003;60223;34.854;-92.408;2024-01-15T11:52:59;2;2;
37709;PMS5003;60223;34.854;-92.408;2024-01-15T11:55:22;2;2;
37709;PMS5003;60223;34.854;-92.408;2024-01-15T11:57:49;1;1;
37709;PMS5003;60223;34.854;-92.408;2024-01-15T12:00:14;2;2;
37709;PMS5003;60223;34.854;-92.408;2024-01-15T12:02:39;2;2;
37709;PMS5003;60223;34.854;-92.408;2024-01-15T12:05:02;1;1;
37709;PMS5003;60223;34.854;-92.408;2024-01-15T12:07:30;2;2;
37709;PMS5003;60223;34.854;-92.408;2024-01-15T12:09:56;2;2;
37709;PMS5003;60223;34.854;-92.408;2024-01-15T12:12:24;2;2;
37709;PMS5003;60223;34.854;-92.408;2024-01-15T12:14:46;2;2;
37709;PMS5003;60223;34.854;-92.408;2024-01-15T12:17:13;1;1;
37709;PMS5003;60223;34.854;-92.408;2024-01-15T12:19:39;0;0;
37709;PMS5003;60223;34.854;-92.408;2024-01-15T12:22:02;1;1;
37709;PMS5003;60223;34.854;-92.408;2024-01-15T12:24:30;2;2;
37709;PMS5003;60223;34.854;-92.408;2024-01-15T12:26:56;1;1;
37709;PMS5003;60223;34.854;-92.408;2024-01-15T12:29:21;2;2;
37709;PMS5003;60223;34.854;-92.408;2024-01-15T12:31:47;1;1;
37709;PMS5003;60223;34.854;-92.408;2024-01-15T12:34:12;2;2;
37709;PMS5003;60223;34.854;-92.408;2024-01-15T12:36:38;0;0;
37709;PMS5003;60223;34.854;-92.408;2024-01-15T12:39:04;1;1;
37709;PMS5003;60223;34.854;-92.408;2024-01-15T12:41:29;2;1;
37709;PMS5003;60223;34.854;-92.408;2024-01-15T12:43:55;0;0;
37709;PMS5003;60223;34.854;-92.408;2024-01-15T12:46:21;1;1;
37709;PMS5003;60223;34.854;-92.408;2024-01-15T12:48:45;1;1;
37709;PMS5003;60223;34.854;-92.408;2024-01-15T12:51:12;1;1;
37709;PMS5003;60223;34.854;-92.408;2024-01-15T12:53:38;1;1;
37709;PMS5003;60223;34.854;-92.408;2024-01-15T12:56:04;0;0;
37709;PMS5003;60223;34.854;-92.408;2024-01-15T12:58:27;2;2;
37709;PMS5003;60223;34.854;-92.408;2024-01-15T13:00:55;1;1;
37709;PMS5003;60223;34.854;-92.408;2024-01-15T13:05:44;1;1;
37709;PMS5003;60223;34.854;-92.408;2024-01-15T13:08:12;2;2;
37709;PMS5003;60223;34.854;-92.408;2024-01-15T13:10:37;1;1;
37709;PMS5003;60223;34.854;-92.408;2024-01-15T13:13:04;2;2;
37709;PMS5003;60223;34.854;-92.408;2024-01-15T13:15:28;2;2;
37709;PMS5003;60223;34.854;-92.408;2024-01-15T13:17:54;2;2;
37709;PMS5003;60223;34.854;-92.408;2024-01-15T13:20:20;2;2;
37709;PMS5003;60223;34.854;-92.408;2024-01-15T13:22:45;1;1;
37709;PMS5003;60223;34.854;-92.408;2024-01-15T13:25:11;1;1;
37709;PMS5003;60223;34.854;-92.408;2024-01-15T13:27:35;1;1;
37709;PMS5003;60223;34.854;-92.408;2024-01-15T13:30:03;2;2;
37709;PMS5003;60223;34.854;-92.408;2024-01-15T13:32:28;1;1;
37709;PMS5003;60223;34.854;-92.408;2024-01-15T13:34:54;2;2;
37709;PMS5003;60223;34.854;-92.408;2024-01-15T13:37:20;1;1;
37709;PMS5003;60223;34.854;-92.408;2024-01-15T13:39:45;2;2;
37709;PMS5003;60223;34.854;-92.408;2024-01-15T13:42:10;1;1;
37709;PMS5003;60223;34.854;-92.408;2024-01-15T13:44:36;3;1;
37709;PMS5003;60223;34.854;-92.408;2024-01-15T13:47:02;3;2;
37709;PMS5003;60223;34.854;-92.408;2024-01-15T13:49:26;1;1;
37709;PMS5003;60223;34.854;-92.408;2024-01-15T13:51:53;3;1;
37709;PMS5003;60223;34.854;-92.408;2024-01-15T13:54:19;1;1;
37709;PMS5003;60223;34.854;-92.408;2024-01-15T13:56:44;2;1;
37709;PMS5003;60223;34.854;-92.408;2024-01-15T13:59:10;1;1;
37709;PMS5003;60223;34.854;-92.408;2024-01-15T14:01:34;1;1;
37709;PMS5003;60223;34.854;-92.408;2024-01-15T14:04:02;4;3;
37709;PMS5003;60223;34.854;-92.408;2024-01-15T14:06:27;1;1;
37709;PMS5003;60223;34.854;-92.408;2024-01-15T14:08:53;1;1;
37709;PMS5003;60223;34.854;-92.408;2024-01-15T14:11:17;1;1;
37709;PMS5003;60223;34.854;-92.408;2024-01-15T14:13:45;1;1;
37709;PMS5003;60223;34.854;-92.408;2024-01-15T14:16:10;1;1;
37709;PMS5003;60223;34.854;-92.408;2024-01-15T14:18:36;1;1;
37709;PMS5003;60223;34.854;-92.408;2024-01-15T14:21:00;1;1;
37709;PMS5003;60223;34.854;-92.408;2024-01-15T14:23:27;1;1;
37709;PMS5003;60223;34.854;-92.408;2024-01-15T14:25:53;1;1;
37709;PMS5003;60223;34.854;-92.408;2024-01-15T14:28:19;0;0;
37709;PMS5003;60223;34.854;-92.408;2024-01-15T14:30:44;1;1;
37709;PMS5003;60223;34.854;-92.408;2024-01-15T14:33:09;2;2;
37709;PMS5003;60223;34.854;-92.408;2024-01-15T14:35:35;1;1;
37709;PMS5003;60223;34.854;-92.408;2024-01-15T14:38:01;0;0;
37709;PMS5003;60223;34.854;-92.408;2024-01-15T14:40:25;1;0;
37709;PMS5003;60223;34.854;-92.408;2024-01-15T14:42:52;2;2;
37709;PMS5003;60223;34.854;-92.408;2024-01-15T14:45:19;1;1;
37709;PMS5003;60223;34.854;-92.408;2024-01-15T14:47:44;2;0;
37709;PMS5003;60223;34.854;-92.408;2024-01-15T14:50:11;2;1;
37709;PMS5003;60223;34.854;-92.408;2024-01-15T14:52:35;1;0;
37709;PMS5003;60223;34.854;-92.408;2024-01-15T14:55:01;2;2;
37709;PMS5003;60223;34.854;-92.408;2024-01-15T14:57:27;0;0;
37709;PMS5003;60223;34.854;-92.408;2024-01-15T14:59:52;2;1;
37709;PMS5003;60223;34.854;-92.408;2024-01-15T15:02:16;1;1;
37709;PMS5003;60223;34.854;-92.408;2024-01-15T15:04:41;1;0;
37709;PMS5003;60223;34.854;-92.408;2024-01-15T15:07:10;2;1;
37709;PMS5003;60223;34.854;-92.408;2024-01-15T15:09:35;0;0;
37709;PMS5003;60223;34.854;-92.408;2024-01-15T15:12:01;1;1;
37709;PMS5003;60223;34.854;-92.408;2024-01-15T15:14:27;1;1;
37709;PMS5003;60223;34.854;-92.408;2024-01-15T15:16:52;1;1;
37709;PMS5003;60223;34.854;-92.408;2024-01-15T15:19:18;3;1;
37709;PMS5003;60223;34.854;-92.408;2024-01-15T15:21:44;1;1;
37709;PMS5003;60223;34.854;-92.408;2024-01-15T15:24:09;1;1;
37709;PMS5003;60223;34.854;-92.408;2024-01-15T15:26:33;2;2;
37709;PMS5003;60223;34.854;-92.408;2024-01-15T15:29:01;3;2;
37709;PMS5003;60223;34.854;-92.408;2024-01-15T15:31:26;2;2;
37709;PMS5003;60223;34.854;-92.408;2024-01-15T15:33:52;1;1;
37709;PMS5003;60223;34.854;-92.408;2024-01-15T15:36:18;1;1;
37709;PMS5003;60223;34.854;-92.408;2024-01-15T15:38:43;0;0;
37709;PMS5003;60223;34.854;-92.408;2024-01-15T15:41:09;1;1;
37709;PMS5003;60223;34.854;-92.408;2024-01-15T15:43:34;1;1;
37709;PMS5003;60223;34.854;-92.408;2024-01-15T15:46:01;1;1;
37709;PMS5003;60223;34.854;-92.408;2024-01-15T15:48:26;0;0;
37709;PMS5003;60223;34.854;-92.408;2024-01-15T15:50:52;0;0;
37709;PMS5003;60223;34.854;-92.408;2024-01-15T15:53:16;1;1;
37709;PMS5003;60223;34.854;-92.408;2024-01-15T15:55:44;3;1;
37709;PMS5003;60223;34.854;-92.408;2024-01-15T15:58:10;2;2;
37709;PMS5003;60223;34.854;-92.408;2024-01-15T16:00:35;2;1;
37709;PMS5003;60223;34.854;-92.408;2024-01-15T16:03:01;3;2;
37709;PMS5003;60223;34.854;-92.408;2024-01-15T16:05:26;1;1;
37709;PMS5003;60223;34.854;-92.408;2024-01-15T16:07:52;1;1;
37709;PMS5003;60223;34.854;-92.408;2024-01-15T16:10:17;1;1;
37709;PMS5003;60223;34.854;-92.408;2024-01-15T16:12:44;2;1;
37709;PMS5003;60223;34.854;-92.408;2024-01-15T16:17:35;1;1;
37709;PMS5003;60223;34.854;-92.408;2024-01-15T16:20:01;1;1;
37709;PMS5003;60223;34.854;-92.408;2024-01-15T16:22:27;2;2;
37709;PMS5003;60223;34.854;-92.408;2024-01-15T16:24:52;1;1;
37709;PMS5003;60223;34.854;-92.408;2024-01-15T16:27:19;3;3;